createdAt,value
2023-02-14T00:00:28.912Z,34.35
2023-02-14T00:02:57.069Z,34.30
2023-02-14T00:05:23.742Z,34.97
2023-02-14T00:07:50.153Z,30.83
2023-02-14T00:10:17.269Z,28.02
2023-02-14T00:12:43.662Z,32.08
2023-02-14T00:15:22.933Z,31.30
2023-02-14T00:17:54.668Z,31.70
2023-02-14T00:20:22.765Z,32.67
2023-02-14T00:22:49.322Z,31.63
2023-02-14T00:25:17.004Z,32.38
2023-02-14T00:27:43.457Z,32.42
2023-02-14T00:30:12.890Z,31.77
2023-02-14T00:32:40.256Z,31.50
2023-02-14T00:35:08.230Z,30.38
2023-02-14T00:37:34.735Z,31.65
2023-02-14T00:40:01.097Z,33.10
2023-02-14T00:42:27.534Z,31.00
2023-02-14T00:44:53.926Z,30.52
2023-02-14T00:47:20.297Z,30.25
2023-02-14T00:49:46.651Z,32.10
2023-02-14T00:52:12.997Z,33.20
2023-02-14T00:54:39.391Z,31.95
2023-02-14T00:57:05.856Z,30.92
2023-02-14T00:59:32.211Z,31.50
2023-02-14T01:01:58.589Z,53.38
2023-02-14T01:04:24.998Z,80.35
2023-02-14T01:06:51.356Z,44.20
2023-02-14T01:09:17.746Z,41.42
2023-02-14T01:11:44.239Z,34.70
2023-02-14T01:14:10.576Z,35.80
2023-02-14T01:16:38.810Z,31.75
2023-02-14T01:19:05.326Z,36.28
2023-02-14T01:21:33.819Z,36.33
2023-02-14T01:24:02.979Z,33.50
2023-02-14T01:26:29.607Z,31.35
2023-02-14T01:28:56.584Z,31.52
2023-02-14T01:31:26.093Z,30.75
2023-02-14T01:36:28.381Z,29.35
2023-02-14T01:38:58.407Z,38.75
2023-02-14T01:41:26.395Z,31.73
2023-02-14T01:43:56.181Z,34.30
2023-02-14T01:46:23.292Z,32.70
2023-02-14T01:48:50.820Z,30.73
2023-02-14T01:51:19.899Z,31.13
2023-02-14T01:53:47.170Z,34.78
2023-02-14T01:56:20.012Z,35.47
2023-02-14T01:58:50.360Z,30.65
2023-02-14T02:01:18.369Z,33.13
2023-02-14T02:03:50.427Z,28.98
2023-02-14T02:06:39.395Z,33.92
2023-02-14T02:09:32.403Z,30.35
2023-02-14T02:11:59.439Z,29.58
2023-02-14T02:14:25.878Z,31.02
2023-02-14T02:17:10.137Z,31.35
2023-02-14T02:20:01.351Z,28.45
2023-02-14T02:22:58.750Z,29.00
2023-02-14T02:26:01.058Z,30.05
2023-02-14T02:29:04.438Z,29.40
2023-02-14T02:32:06.052Z,33.78
2023-02-14T02:34:57.733Z,29.00
2023-02-14T02:37:51.031Z,30.25
2023-02-14T02:40:48.987Z,28.67
2023-02-14T02:43:53.873Z,30.08
2023-02-14T02:46:49.767Z,30.27
2023-02-14T02:49:39.053Z,28.75
2023-02-14T02:52:32.241Z,28.30
2023-02-14T02:55:06.047Z,29.38
2023-02-14T02:57:37.673Z,29.38
2023-02-14T03:00:07.396Z,28.00
2023-02-14T03:03:00.616Z,28.77
2023-02-14T03:05:28.854Z,27.60
2023-02-14T03:07:55.203Z,27.77
2023-02-14T03:10:24.751Z,28.00
2023-02-14T03:13:10.236Z,29.48
2023-02-14T03:16:12.374Z,28.27
2023-02-14T03:19:09.420Z,29.23
2023-02-14T03:22:00.746Z,29.13
2023-02-14T03:24:46.020Z,27.67
2023-02-14T03:27:25.449Z,29.17
2023-02-14T03:30:14.448Z,26.95
2023-02-14T03:32:51.598Z,26.05
2023-02-14T03:35:32.055Z,24.48
2023-02-14T03:38:08.282Z,25.80
2023-02-14T03:40:40.838Z,28.33
2023-02-14T03:43:12.938Z,23.75
2023-02-14T03:45:52.910Z,26.05
2023-02-14T03:48:23.998Z,25.55
2023-02-14T03:50:52.279Z,23.00
2023-02-14T03:53:24.676Z,25.40
2023-02-14T03:56:01.437Z,22.17
2023-02-14T03:58:37.446Z,20.98
2023-02-14T04:01:11.597Z,21.20
2023-02-14T04:03:41.006Z,21.05
2023-02-14T04:06:08.341Z,21.00
2023-02-14T04:08:35.077Z,23.65
2023-02-14T04:11:04.677Z,19.90
2023-02-14T04:15:57.790Z,21.17
2023-02-14T04:18:42.934Z,20.80
2023-02-14T04:21:09.347Z,21.55
2023-02-14T04:23:35.695Z,22.02
2023-02-14T04:26:03.725Z,18.38
2023-02-14T04:28:30.768Z,31.50
2023-02-14T04:31:00.817Z,51.40
2023-02-14T04:33:27.530Z,18.77
2023-02-14T04:35:53.922Z,26.10
2023-02-14T04:38:20.463Z,26.63
2023-02-14T04:40:49.803Z,22.83
2023-02-14T04:43:16.228Z,18.52
2023-02-14T04:45:42.578Z,23.75
2023-02-14T04:48:08.969Z,20.38
2023-02-14T04:50:35.374Z,19.30
2023-02-14T04:53:01.718Z,21.05
2023-02-14T04:55:28.195Z,18.85
2023-02-14T04:57:54.546Z,18.17
2023-02-14T05:00:21.133Z,22.25
2023-02-14T05:02:47.583Z,23.90
2023-02-14T05:05:13.943Z,26.65
2023-02-14T05:07:40.362Z,31.20
2023-02-14T05:10:07.178Z,25.52
2023-02-14T05:12:33.632Z,22.25
2023-02-14T05:15:00.376Z,22.08
2023-02-14T05:17:26.760Z,20.77
2023-02-14T05:19:53.172Z,22.40
2023-02-14T05:22:19.509Z,23.40
2023-02-14T05:24:45.874Z,23.80
2023-02-14T05:27:12.251Z,22.80
2023-02-14T05:29:38.726Z,20.98
2023-02-14T05:32:05.242Z,23.45
2023-02-14T05:34:31.623Z,22.40
2023-02-14T05:36:58.002Z,20.75
2023-02-14T05:39:24.387Z,25.05
2023-02-14T05:41:51.034Z,21.65
2023-02-14T05:44:17.398Z,20.85
2023-02-14T05:46:43.747Z,20.52
2023-02-14T05:49:10.106Z,19.65
2023-02-14T05:51:36.449Z,20.13
2023-02-14T05:54:02.832Z,19.50
2023-02-14T05:56:29.221Z,19.85
2023-02-14T05:58:55.588Z,20.55
2023-02-14T06:01:22.002Z,23.70
2023-02-14T06:03:48.402Z,21.10
2023-02-14T06:06:14.761Z,26.83
2023-02-14T06:08:41.144Z,25.33
2023-02-14T06:11:07.487Z,24.02
2023-02-14T06:13:33.848Z,26.92
2023-02-14T06:16:00.275Z,25.23
2023-02-14T06:18:29.476Z,24.55
2023-02-14T06:20:55.902Z,29.33
2023-02-14T06:23:22.641Z,29.20
2023-02-14T06:25:48.992Z,26.48
2023-02-14T06:28:15.424Z,30.08
2023-02-14T06:30:42.075Z,27.92
2023-02-14T06:33:08.533Z,26.08
2023-02-14T06:35:34.890Z,26.50
2023-02-14T06:38:01.238Z,28.10
2023-02-14T06:40:27.603Z,27.10
2023-02-14T06:42:54.016Z,29.13
2023-02-14T06:45:20.363Z,28.20
2023-02-14T06:47:47.083Z,31.10
2023-02-14T06:50:13.436Z,28.17
2023-02-14T06:52:39.861Z,28.00
2023-02-14T06:55:06.527Z,27.92
2023-02-14T06:57:32.925Z,30.48
2023-02-14T06:59:59.279Z,29.95
2023-02-14T07:02:25.738Z,31.02
2023-02-14T07:04:52.225Z,28.50
2023-02-14T07:07:18.606Z,32.20
2023-02-14T07:09:44.955Z,31.20
2023-02-14T07:12:11.465Z,34.17
2023-02-14T07:14:37.825Z,33.90
2023-02-14T07:17:04.620Z,31.65
2023-02-14T07:19:30.977Z,33.10
2023-02-14T07:21:57.320Z,24.55
2023-02-14T07:24:23.848Z,27.75
2023-02-14T07:26:50.232Z,29.02
2023-02-14T07:29:16.596Z,26.27
2023-02-14T07:31:43.067Z,23.58
2023-02-14T07:34:09.496Z,29.55
2023-02-14T07:36:37.462Z,25.55
2023-02-14T07:39:03.861Z,24.73
2023-02-14T07:41:30.258Z,25.00
2023-02-14T07:43:56.605Z,28.08
2023-02-14T07:46:22.988Z,24.40
2023-02-14T07:48:50.659Z,26.50
2023-02-14T07:51:17.028Z,24.75
2023-02-14T07:53:43.387Z,24.05
2023-02-14T07:56:09.757Z,25.05
2023-02-14T07:58:36.118Z,24.08
2023-02-14T08:01:02.670Z,19.35
2023-02-14T08:03:29.235Z,23.17
2023-02-14T08:05:58.268Z,21.33
2023-02-14T08:08:27.381Z,20.08
2023-02-14T08:10:53.806Z,23.50
2023-02-14T08:13:20.424Z,21.95
2023-02-14T08:16:05.130Z,25.42
2023-02-14T08:18:42.341Z,21.55
2023-02-14T08:21:11.135Z,22.92
2023-02-14T08:23:37.674Z,20.50
2023-02-14T08:26:04.313Z,24.10
2023-02-14T08:28:32.914Z,26.42
2023-02-14T08:30:59.672Z,25.20
2023-02-14T08:33:26.251Z,26.83
2023-02-14T08:35:52.723Z,25.20
2023-02-14T08:38:19.540Z,95.07
2023-02-14T08:40:46.035Z,97.38
2023-02-14T08:43:12.778Z,37.45
2023-02-14T08:45:40.091Z,25.55
2023-02-14T08:48:11.945Z,25.30
2023-02-14T08:50:39.354Z,26.48
2023-02-14T08:53:10.240Z,22.73
2023-02-14T08:55:37.241Z,25.25
2023-02-14T08:58:04.348Z,36.20
2023-02-14T09:00:32.217Z,26.23
2023-02-14T09:02:59.159Z,28.58
2023-02-14T09:05:26.549Z,25.75
2023-02-14T09:07:55.867Z,28.45
2023-02-14T09:10:22.480Z,53.65
2023-02-14T09:12:48.846Z,21.00
2023-02-14T09:15:15.200Z,26.48
2023-02-14T09:17:41.614Z,69.15
2023-02-14T09:20:11.459Z,25.00
2023-02-14T09:22:37.888Z,19.63
2023-02-14T09:25:04.895Z,20.33
2023-02-14T09:27:31.371Z,19.90
2023-02-14T09:29:57.741Z,22.13
2023-02-14T09:32:27.076Z,21.73
2023-02-14T09:34:53.494Z,21.40
2023-02-14T09:37:38.640Z,21.35
2023-02-14T09:40:05.764Z,22.10
2023-02-14T09:43:13.704Z,19.88
2023-02-14T09:45:40.339Z,23.17
2023-02-14T09:48:17.235Z,28.02
2023-02-14T09:50:54.900Z,25.77
2023-02-14T09:53:46.458Z,24.55
2023-02-14T09:56:37.306Z,38.83
2023-02-14T09:59:39.282Z,190.95
2023-02-14T10:02:43.145Z,34.60
2023-02-14T10:05:15.488Z,23.40
2023-02-14T10:08:05.142Z,20.63
2023-02-14T10:10:43.073Z,22.30
2023-02-14T10:13:40.637Z,21.77
2023-02-14T10:16:36.500Z,20.02
2023-02-14T10:19:40.483Z,23.27
2023-02-14T10:22:15.125Z,22.95
2023-02-14T10:24:55.087Z,21.98
2023-02-14T10:27:32.480Z,23.33
2023-02-14T10:29:59.104Z,26.63
2023-02-14T10:32:37.797Z,24.67
2023-02-14T10:35:15.935Z,22.65
2023-02-14T10:38:17.421Z,21.85
2023-02-14T10:41:01.871Z,22.83
2023-02-14T10:43:41.489Z,21.55
2023-02-14T10:46:19.379Z,21.92
2023-02-14T10:49:08.175Z,22.52
2023-02-14T10:51:51.144Z,22.13
2023-02-14T10:54:28.898Z,22.30
2023-02-14T10:57:18.499Z,20.95
2023-02-14T10:59:49.350Z,20.98
2023-02-14T11:02:18.194Z,21.73
2023-02-14T11:04:47.167Z,20.00
2023-02-14T11:07:15.484Z,21.55
2023-02-14T11:09:41.920Z,26.10
2023-02-14T11:12:09.862Z,22.00
2023-02-14T11:14:38.121Z,21.52
2023-02-14T11:17:35.862Z,22.92
2023-02-14T11:20:20.363Z,20.83
2023-02-14T11:22:46.758Z,19.40
2023-02-14T11:25:35.557Z,19.25
2023-02-14T11:28:07.874Z,25.17
2023-02-14T11:30:37.011Z,29.17
2023-02-14T11:33:04.726Z,19.20
2023-02-14T11:35:37.015Z,18.27
2023-02-14T11:38:30.491Z,17.58
2023-02-14T11:40:59.150Z,18.55
2023-02-14T11:43:40.247Z,18.83
2023-02-14T11:46:22.793Z,17.83
2023-02-14T11:48:57.652Z,19.25
2023-02-14T11:51:34.933Z,19.13
2023-02-14T11:54:05.371Z,17.20
2023-02-14T11:56:49.587Z,16.73
2023-02-14T11:59:27.983Z,16.80
2023-02-14T12:01:55.738Z,18.95
2023-02-14T12:04:32.787Z,18.42
2023-02-14T12:07:17.943Z,18.13
2023-02-14T12:09:46.278Z,15.88
2023-02-14T12:12:23.543Z,15.57
2023-02-14T12:14:50.196Z,15.07
2023-02-14T12:17:30.301Z,17.45
2023-02-14T12:20:11.923Z,17.52
2023-02-14T12:23:03.402Z,17.95
2023-02-14T12:25:45.286Z,15.80
2023-02-14T12:30:44.300Z,17.05
2023-02-14T12:33:21.840Z,17.17
2023-02-14T12:36:03.532Z,18.33
2023-02-14T12:38:46.036Z,18.98
2023-02-14T12:41:50.147Z,17.65
2023-02-14T12:44:25.931Z,17.70
2023-02-14T12:49:30.937Z,16.83
2023-02-14T12:52:12.942Z,17.10
2023-02-14T12:57:44.321Z,18.50
2023-02-14T13:00:14.847Z,18.25
2023-02-14T13:03:15.112Z,22.30
2023-02-14T13:06:17.523Z,18.95
2023-02-14T13:09:21.336Z,20.20
2023-02-14T13:12:17.201Z,53.30
2023-02-14T13:14:58.145Z,97.45
2023-02-14T13:17:38.498Z,19.05
2023-02-14T13:20:30.971Z,20.77
2023-02-14T13:23:02.995Z,22.55
2023-02-14T13:25:34.520Z,17.83
2023-02-14T13:28:04.653Z,19.30
2023-02-14T13:30:37.133Z,19.73
2023-02-14T13:33:09.472Z,18.75
2023-02-14T13:35:36.144Z,17.58
2023-02-14T13:38:06.863Z,16.52
2023-02-14T13:40:35.474Z,19.33
2023-02-14T13:43:02.637Z,19.23
2023-02-14T13:45:37.824Z,19.13
2023-02-14T13:48:14.457Z,16.98
2023-02-14T13:50:59.660Z,16.38
2023-02-14T13:53:40.211Z,18.80
2023-02-14T13:56:12.725Z,23.75
2023-02-14T13:58:52.913Z,29.80
2023-02-14T14:01:28.451Z,20.70
2023-02-14T14:04:01.775Z,18.05
2023-02-14T14:06:28.445Z,18.27
2023-02-14T14:08:57.085Z,18.42
2023-02-14T14:11:23.386Z,20.30
2023-02-14T14:14:01.600Z,18.27
2023-02-14T14:16:33.284Z,18.02
2023-02-14T14:19:21.987Z,15.80
2023-02-14T14:22:10.088Z,16.52
2023-02-14T14:27:06.947Z,14.20
2023-02-14T14:29:53.930Z,18.98
2023-02-14T14:32:30.315Z,17.65
2023-02-14T14:35:18.711Z,21.20
2023-02-14T14:37:51.699Z,19.23
2023-02-14T14:40:32.044Z,28.73
2023-02-14T14:43:22.779Z,22.90
2023-02-14T14:45:51.482Z,23.38
2023-02-14T14:48:43.485Z,25.17
2023-02-14T14:51:36.846Z,22.63
2023-02-14T14:54:13.460Z,26.38
2023-02-14T14:56:50.889Z,24.85
2023-02-14T14:59:22.408Z,95.85
2023-02-14T15:01:54.215Z,31.92
2023-02-14T15:04:32.396Z,27.15
2023-02-14T15:07:18.669Z,27.65
2023-02-14T15:09:45.379Z,25.40
2023-02-14T15:12:35.714Z,24.75
2023-02-14T15:15:02.267Z,25.58
2023-02-14T15:17:31.656Z,27.15
2023-02-14T15:20:07.048Z,26.23
2023-02-14T15:22:41.789Z,28.40
2023-02-14T15:25:20.596Z,30.52
2023-02-14T15:27:47.832Z,26.23
2023-02-14T15:30:37.078Z,26.77
2023-02-14T15:33:05.956Z,27.25
2023-02-14T15:35:34.790Z,27.48
2023-02-14T15:38:04.542Z,30.42
2023-02-14T15:40:33.941Z,29.27
2023-02-14T15:43:41.505Z,28.15
2023-02-14T15:46:29.625Z,27.25
2023-02-14T15:49:00.811Z,28.33
2023-02-14T15:51:30.728Z,28.42
2023-02-14T15:54:00.378Z,27.27
2023-02-14T15:56:43.162Z,30.98
2023-02-14T15:59:17.502Z,30.23
2023-02-14T16:01:52.537Z,30.60
2023-02-14T16:04:27.084Z,30.98
2023-02-14T16:07:24.361Z,28.63
2023-02-14T16:10:11.818Z,30.23
2023-02-14T16:12:39.830Z,37.22
2023-02-14T16:15:15.147Z,30.40
2023-02-14T16:17:43.912Z,33.58
2023-02-14T16:20:38.940Z,31.83
2023-02-14T16:23:20.456Z,142.40
2023-02-14T16:25:47.884Z,120.82
2023-02-14T16:28:14.790Z,38.05
2023-02-14T16:30:42.548Z,43.20
2023-02-14T16:33:36.853Z,35.60
2023-02-14T16:36:14.056Z,35.40
2023-02-14T16:38:43.864Z,37.25
2023-02-14T16:41:19.181Z,34.25
2023-02-14T16:43:46.613Z,33.45
2023-02-14T16:46:14.664Z,31.27
2023-02-14T16:48:42.401Z,31.88
2023-02-14T16:51:14.113Z,31.17
2023-02-14T16:53:42.593Z,32.78
2023-02-14T16:56:17.720Z,30.67
2023-02-14T16:58:44.531Z,32.00
2023-02-14T17:01:10.971Z,31.60
2023-02-14T17:03:39.596Z,33.20
2023-02-14T17:06:08.075Z,33.55
2023-02-14T17:08:34.846Z,32.50
2023-02-14T17:11:02.101Z,36.17
2023-02-14T17:13:32.873Z,35.33
2023-02-14T17:16:01.369Z,37.67
2023-02-14T17:18:30.369Z,35.65
2023-02-14T17:20:59.198Z,35.20
2023-02-14T17:23:26.135Z,36.03
2023-02-14T17:25:52.528Z,34.92
2023-02-14T17:28:18.854Z,34.13
2023-02-14T17:30:45.224Z,64.93
2023-02-14T17:33:11.572Z,54.35
2023-02-14T17:35:38.094Z,47.83
2023-02-14T17:38:04.494Z,37.83
2023-02-14T17:40:31.901Z,40.20
2023-02-14T17:42:58.450Z,40.25
2023-02-14T17:45:24.922Z,41.03
2023-02-14T17:47:51.293Z,40.60
2023-02-14T17:50:18.123Z,39.80
2023-02-14T17:52:44.990Z,43.50
2023-02-14T17:55:12.127Z,41.95
2023-02-14T17:57:40.848Z,42.40
2023-02-14T18:00:11.614Z,40.00
2023-02-14T18:02:38.538Z,40.88
2023-02-14T18:05:07.229Z,41.33
2023-02-14T18:07:33.785Z,40.35
2023-02-14T18:10:00.178Z,41.88
2023-02-14T18:12:26.622Z,44.03
2023-02-14T18:14:55.081Z,40.17
2023-02-14T18:17:21.503Z,41.42
2023-02-14T18:19:47.930Z,57.58
2023-02-14T18:22:14.711Z,82.30
2023-02-14T18:24:41.593Z,43.83
2023-02-14T18:27:07.956Z,42.03
2023-02-14T18:29:36.183Z,40.45
2023-02-14T18:32:03.800Z,41.13
2023-02-14T18:34:30.260Z,43.45
2023-02-14T18:36:57.174Z,43.95
2023-02-14T18:39:23.649Z,48.92
2023-02-14T18:41:50.174Z,44.78
2023-02-14T18:44:16.581Z,47.47
2023-02-14T18:46:42.955Z,46.78
2023-02-14T18:49:10.274Z,45.00
2023-02-14T18:51:39.299Z,45.53
2023-02-14T18:54:06.490Z,44.47
2023-02-14T18:56:35.678Z,44.72
2023-02-14T18:59:04.838Z,45.83
2023-02-14T19:01:36.716Z,44.75
2023-02-14T19:04:06.755Z,49.67
2023-02-14T19:06:34.032Z,50.88
2023-02-14T19:09:01.747Z,50.15
2023-02-14T19:11:31.484Z,46.10
2023-02-14T19:16:28.520Z,48.58
2023-02-14T19:18:55.414Z,44.92
2023-02-14T19:21:24.579Z,51.90
2023-02-14T19:23:53.021Z,47.38
2023-02-14T19:26:22.016Z,52.63
2023-02-14T19:28:50.485Z,50.42
2023-02-14T19:31:16.940Z,50.88
2023-02-14T19:33:44.952Z,71.50
2023-02-14T19:36:13.305Z,59.47
2023-02-14T19:38:41.495Z,53.25
2023-02-14T19:41:16.654Z,58.40
2023-02-14T19:43:44.250Z,51.88
2023-02-14T19:46:10.613Z,56.97
2023-02-14T19:48:37.011Z,50.53
2023-02-14T19:51:03.604Z,52.08
2023-02-14T19:53:30.314Z,48.00
2023-02-14T19:55:56.674Z,48.88
2023-02-14T19:58:25.981Z,52.38
2023-02-14T20:00:59.267Z,48.38
2023-02-14T20:03:27.872Z,50.72
2023-02-14T20:05:54.234Z,54.58
2023-02-14T20:08:21.795Z,54.80
2023-02-14T20:10:48.142Z,52.08
2023-02-14T20:13:14.536Z,55.53
2023-02-14T20:15:40.919Z,55.25
2023-02-14T20:18:07.599Z,55.20
2023-02-14T20:20:53.913Z,53.42
2023-02-14T20:23:20.245Z,56.28
2023-02-14T20:25:46.574Z,50.35
2023-02-14T20:28:12.925Z,57.00
2023-02-14T20:30:39.649Z,55.72
2023-02-14T20:33:06.494Z,52.15
2023-02-14T20:35:38.017Z,55.65
2023-02-14T20:38:07.455Z,57.83
2023-02-14T20:40:43.436Z,56.05
2023-02-14T20:45:36.029Z,55.55
2023-02-14T20:48:04.182Z,55.22
2023-02-14T20:50:31.480Z,56.60
2023-02-14T20:52:58.167Z,57.05
2023-02-14T20:55:27.018Z,55.63
2023-02-14T20:57:53.774Z,55.85
2023-02-14T21:00:20.263Z,58.88
2023-02-14T21:02:46.636Z,55.92
2023-02-14T21:05:18.270Z,59.22
2023-02-14T21:07:44.636Z,57.95
2023-02-14T21:10:11.071Z,61.28
2023-02-14T21:12:38.502Z,64.13
2023-02-14T21:15:06.882Z,60.70
2023-02-14T21:17:33.862Z,58.17
2023-02-14T21:20:00.214Z,56.80
2023-02-14T21:22:26.566Z,61.28
2023-02-14T21:24:52.915Z,61.22
2023-02-14T21:27:19.297Z,54.97
2023-02-14T21:29:45.637Z,55.83
2023-02-14T21:32:12.106Z,59.40
2023-02-14T21:34:38.554Z,61.33
2023-02-14T21:37:04.946Z,60.63
2023-02-14T21:39:31.378Z,60.20
2023-02-14T21:41:57.850Z,62.33
2023-02-14T21:44:42.621Z,57.35
2023-02-14T21:47:09.022Z,63.13
2023-02-14T21:49:53.770Z,57.30
2023-02-14T21:52:20.182Z,57.03
2023-02-14T21:54:47.009Z,56.92
2023-02-14T21:57:13.378Z,57.80
2023-02-14T21:59:40.290Z,55.70
2023-02-14T22:02:07.162Z,57.42
2023-02-14T22:04:35.373Z,60.13
2023-02-14T22:07:01.776Z,55.75
2023-02-14T22:09:28.157Z,57.17
2023-02-14T22:11:54.572Z,62.25
2023-02-14T22:14:20.930Z,60.42
2023-02-14T22:16:47.278Z,58.70
2023-02-14T22:19:15.452Z,56.25
2023-02-14T22:21:42.701Z,55.97
2023-02-14T22:24:09.044Z,55.33
2023-02-14T22:26:40.800Z,58.28
2023-02-14T22:29:09.720Z,54.47
2023-02-14T22:31:38.396Z,53.95
2023-02-14T22:34:06.345Z,59.20
2023-02-14T22:36:32.752Z,55.00
2023-02-14T22:39:02.870Z,51.60
2023-02-14T22:41:29.580Z,56.28
2023-02-14T22:43:57.310Z,55.08
2023-02-14T22:46:27.620Z,55.08
2023-02-14T22:48:55.043Z,57.03
2023-02-14T22:51:38.683Z,53.67
2023-02-14T22:54:07.830Z,63.33
2023-02-14T22:56:38.774Z,53.63
2023-02-14T22:59:08.265Z,60.55
2023-02-14T23:01:35.706Z,53.70
2023-02-14T23:04:03.629Z,52.58
2023-02-14T23:06:32.400Z,54.00
2023-02-14T23:09:00.535Z,58.40
2023-02-14T23:11:29.733Z,52.85
2023-02-14T23:14:14.904Z,52.25
2023-02-14T23:17:00.695Z,54.80
2023-02-14T23:19:49.135Z,57.00
2023-02-14T23:22:20.349Z,55.80
2023-02-14T23:24:48.135Z,54.72
2023-02-14T23:27:16.574Z,54.10
2023-02-14T23:29:42.936Z,58.25
2023-02-14T23:32:09.709Z,54.38
2023-02-14T23:34:39.872Z,53.60
2023-02-14T23:37:07.556Z,52.95
2023-02-14T23:39:36.549Z,58.13
2023-02-14T23:42:04.421Z,49.90
2023-02-14T23:44:31.040Z,54.92
2023-02-14T23:46:59.238Z,57.42
2023-02-14T23:49:26.298Z,56.28
2023-02-14T23:51:55.064Z,50.10
2023-02-14T23:54:23.072Z,56.13
2023-02-14T23:56:50.963Z,54.85
2023-02-14T23:59:17.493Z,53.03
